Latest Weather Observations for Port Pirie Airport AWS***

IDS60801

Issued at 9:05 pm CST Tuesday 30 September 2014 (issued every 30 minutes, with the page automatically refreshed every 10 minutes)

About weather observations | Map of weather stations | Latest weather observations for SA | Other Formats
Station Details ID: 250006 Name: PORT PIRIE AERODROME AWS Lat: -33.23 Lon: 138.00 Height: 10.0 m
Data from the previous 72 hours. | See also: Recent months for locations in South Australia
Date/Time
CST
Temp
°C
App
Temp
°C
Dew
Point
Rel
Hum
%
Delta-T
°C
Wind Press
QNH
hPa
Press
MSL
hPa
Rain
since 9 am
mm
Dir
 
Spd
km/h
Gust
km/h
Spd
kts
Gust
kts
30/09:00pm 12.7 10.0 5.8 63 3.2 S 9 15 5 8 - - 0.0
30/08:30pm 14.1 10.0 6.2 59 3.8 S 17 20 9 11 - - 0.0
30/08:00pm 14.9 10.9 6.5 57 4.1 SSW 17 22 9 12 - - 0.0
30/07:30pm 15.4 10.4 6.4 55 4.4 SSW 22 35 12 19 - - 0.0
30/07:00pm 16.0 10.7 7.0 55 4.4 SSW 24 37 13 20 - - 0.0
30/06:30pm 16.7 10.4 7.6 55 4.6 SSW 30 39 16 21 - - 0.0
30/06:00pm 17.3 10.9 8.4 56 4.6 SSW 32 44 17 24 - - 0.0
30/05:30pm 18.0 10.5 9.4 57 4.5 SSW 39 50 21 27 - - 0.0
30/05:00pm 19.2 12.1 9.7 54 5.0 SSW 37 50 20 27 - - 0.0
30/04:30pm 20.0 12.9 9.6 51 5.5 SSW 37 50 20 27 - - 0.0
30/04:00pm 21.5 13.8 8.7 44 6.8 SW 39 52 21 28 - - 0.0
30/03:30pm 22.3 15.1 9.1 43 7.1 SSW 37 50 20 27 - - 0.0
30/03:00pm 22.6 16.2 8.7 41 7.4 SSW 32 44 17 24 - - 0.0
30/02:30pm 23.2 17.2 8.5 39 7.8 SW 30 39 16 21 - - 0.0
30/02:00pm 23.3 16.9 8.6 39 7.8 SSW 32 43 17 23 - - 0.0
30/01:30pm 22.9 17.3 8.6 40 7.6 SW 28 41 15 22 - - 0.0
30/01:00pm 23.8 18.0 7.8 36 8.4 SSW 28 39 15 21 - - 0.0
30/12:30pm 23.8 19.7 7.8 36 8.4 SSW 19 30 10 16 - - 0.0
30/12:00pm 24.4 19.0 8.0 35 8.7 SW 26 35 14 19 - - 0.0
30/11:30am 25.8 22.1 6.4 29 10.1 WNW 15 37 8 20 - - 0.0
30/11:00am 24.7 20.6 6.0 30 9.6 WNW 17 33 9 18 - - 0.0
30/10:30am 24.7 20.8 5.5 29 9.8 WNW 15 32 8 17 - - 0.0
30/10:00am 24.4 20.2 5.7 30 9.5 WNW 17 30 9 16 - - 0.0
30/09:30am 23.3 20.2 7.4 36 8.3 WNW 13 22 7 12 - - 0.0
30/09:00am 21.3 17.6 7.9 42 7.0 NW 17 26 9 14 - - 0.0
30/08:30am 20.7 18.5 9.3 48 6.1 NNW 11 22 6 12 - - 0.0
30/08:00am 19.2 16.2 9.4 53 5.2 NNW 15 22 8 12 - - 0.0
30/07:30am 15.2 14.2 8.9 66 3.2 NNE 4 7 2 4 - - 0.0
30/07:00am 10.0 8.6 5.4 73 2.1 ESE 2 6 1 3 - - 0.0
30/06:30am 6.7 4.0 2.8 76 1.6 E 6 6 3 3 - - 0.0
30/06:00am 5.1 2.5 0.7 73 1.7 E 4 6 2 3 - - 0.0
30/05:30am 6.7 4.4 2.6 75 1.7 SSW 4 7 2 4 - - 0.0
30/05:00am 6.0 3.5 1.3 72 1.9 ENE 4 6 2 3 - - 0.0
30/04:30am 7.2 4.9 2.5 72 1.9 SE 4 6 2 3 - - 0.0
30/04:00am 7.4 5.2 3.1 74 1.8 N 4 6 2 3 - - 0.0
30/03:30am 6.6 4.2 2.1 73 1.8 NE 4 4 2 2 - - 0.0
30/03:00am 6.2 3.4 2.1 75 1.7 E 6 7 3 4 - - 0.0
30/02:30am 7.3 4.5 2.2 70 2.1 ESE 6 6 3 3 - - 0.0
30/02:00am 8.5 6.6 2.9 68 2.4 ENE 2 4 1 2 - - 0.0
30/01:30am 8.8 6.6 3.4 69 2.3 E 4 4 2 2 - - 0.0
30/01:00am 10.2 8.6 4.4 67 2.6 E 2 4 1 2 - - 0.0
30/12:30am 9.7 7.6 3.7 66 2.6 E 4 4 2 2 - - 0.0
30/12:00am 10.0 7.9 3.7 65 2.8 E 4 4 2 2 - - 0.0
 
Date/Time
CST
Temp
°C
App
Temp
°C
Dew
Point
Rel
Hum
%
Delta-T
°C
Wind Press
QNH
hPa
Press
MSL
hPa
Rain
since 9 am
mm
Dir
 
Spd
km/h
Gust
km/h
Spd
kts
Gust
kts
29/11:30pm 11.0 9.5 4.9 66 2.8 E 2 4 1 2 - - 0.0
29/11:00pm 11.4 9.2 5.3 66 2.8 ESE 6 6 3 3 - - 0.0
29/10:30pm 11.6 9.5 5.7 67 2.7 ESE 6 7 3 4 - - 0.0
29/10:00pm 10.8 8.6 5.3 69 2.5 E 6 7 3 4 - - 0.0
29/09:30pm 12.1 9.9 5.5 64 3.1 ESE 6 7 3 4 - - 0.0
29/09:00pm 15.2 13.1 6.7 57 4.1 SSW 7 11 4 6 - - 0.0
29/08:30pm 15.8 13.9 7.6 58 4.1 SSW 7 11 4 6 - - 0.0
29/08:00pm 17.6 14.8 8.5 55 4.7 SW 13 17 7 9 - - 0.0
29/07:30pm 19.4 16.4 4.3 37 7.2 WSW 9 13 5 7 - - 0.0
29/07:00pm 19.6 18.0 4.5 37 7.3 W 2 6 1 3 - - 0.0
29/06:30pm 21.0 19.0 4.6 34 8.0 WNW 4 6 2 3 - - 0.0
29/06:00pm 23.1 20.8 4.6 30 9.1 NNW 6 11 3 6 - - 0.0
29/05:30pm 24.3 21.4 4.6 28 9.8 N 9 15 5 8 - - 0.0
29/05:00pm 24.6 21.7 4.9 28 9.9 N 9 15 5 8 - - 0.0
29/04:30pm 24.5 20.5 4.8 28 9.9 NNE 15 22 8 12 - - 0.0
29/04:00pm 24.2 20.6 5.1 29 9.6 NNE 13 24 7 13 - - 0.0
29/03:30pm 23.9 20.6 4.3 28 9.7 N 11 22 6 12 - - 0.0
29/03:00pm 24.5 21.7 5.3 29 9.7 N 9 20 5 11 - - 0.0
29/02:30pm 24.4 21.3 3.7 26 10.2 N 9 20 5 11 - - 0.0
29/02:00pm 22.8 19.8 3.9 29 9.2 NNW 9 19 5 10 - - 0.0
29/01:30pm 22.7 20.7 4.2 30 9.1 NW 4 11 2 6 - - 0.0
29/01:00pm 21.9 19.0 4.5 32 8.5 NW 9 17 5 9 - - 0.0
29/12:30pm 22.3 19.5 5.3 33 8.5 WNW 9 24 5 13 - - 0.0
29/12:00pm 20.9 18.7 6.4 39 7.3 N 7 17 4 9 - - 0.0
29/11:30am 20.8 19.0 7.1 41 7.0 NW 6 13 3 7 - - 0.0
29/11:00am 20.6 19.4 9.5 49 5.9 N 6 11 3 6 - - 0.0
29/10:30am 19.8 18.4 9.7 52 5.4 NW 7 13 4 7 - - 0.0
29/10:00am 18.6 17.2 8.8 53 5.1 NW 6 15 3 8 - - 0.0
29/09:30am 18.1 17.1 8.9 55 4.8 N 4 11 2 6 - - 0.0
29/09:00am 17.9 17.0 9.3 57 4.5 N 4 11 2 6 - - 0.0
29/08:30am 17.0 15.4 8.9 59 4.2 N 7 15 4 8 - - 0.0
29/08:00am 16.6 15.3 9.3 62 3.8 NNW 6 15 3 8 - - 0.0
29/07:30am 15.5 14.1 9.4 67 3.1 N 7 11 4 6 - - 0.0
29/07:00am 12.9 11.5 8.8 76 2.1 N 6 7 3 4 - - 0.0
29/06:30am 9.5 7.9 6.2 80 1.5 NE 4 6 2 3 - - 0.0
29/06:00am 9.2 7.5 6.1 81 1.4 NE 4 6 2 3 - - 0.0
29/05:30am 7.6 5.2 4.4 80 1.4 ENE 6 6 3 3 - - 0.0
29/05:00am 8.0 6.1 5.1 82 1.3 E 4 7 2 4 - - 0.0
29/04:30am 7.5 5.5 4.5 81 1.3 E 4 7 2 4 - - 0.0
29/04:00am 8.8 7.5 6.1 83 1.2 WNW 2 4 1 2 - - 0.0
29/03:30am 6.1 4.1 2.4 77 1.5 NE 2 4 1 2 - - 0.0
29/03:00am 8.1 6.5 4.3 77 1.7 W 2 6 1 3 - - 0.0
29/02:30am 6.6 4.3 2.5 75 1.7 ENE 4 7 2 4 - - 0.0
29/02:00am 7.7 5.5 3.4 74 1.8 E 4 7 2 4 - - 0.0
29/01:30am 9.0 7.9 5.0 76 1.8 CALM 0 2 0 1 - - 0.0
29/01:00am 9.3 7.9 5.5 77 1.7 ENE 2 4 1 2 - - 0.0
29/12:30am 8.9 7.0 4.7 75 1.9 NNE 4 6 2 3 - - 0.0
29/12:00am 9.4 7.4 4.6 72 2.1 E 4 6 2 3 - - 0.0
 
Date/Time
CST
Temp
°C
App
Temp
°C
Dew
Point
Rel
Hum
%
Delta-T
°C
Wind Press
QNH
hPa
Press
MSL
hPa
Rain
since 9 am
mm
Dir
 
Spd
km/h
Gust
km/h
Spd
kts
Gust
kts
28/11:30pm 11.4 10.1 6.1 70 2.5 S 2 6 1 3 - - 0.0
28/11:00pm 12.4 10.3 6.7 68 2.7 SSE 7 11 4 6 - - 0.0
28/10:30pm 13.4 11.6 7.2 66 3.0 ESE 6 11 3 6 - - 0.0
28/10:00pm 15.8 12.1 8.1 60 3.9 SSW 17 24 9 13 - - 0.0
28/09:30pm 15.3 12.3 7.8 61 3.7 S 13 17 7 9 - - 0.0
28/09:00pm 16.8 12.8 8.2 57 4.4 S 19 30 10 16 - - 0.0
28/08:30pm 17.3 13.8 8.7 57 4.4 S 17 24 9 13 - - 0.0
28/08:00pm 18.0 14.5 8.6 54 4.9 S 17 28 9 15 - - 0.0
28/07:30pm 18.2 14.3 8.7 54 4.9 S 19 26 10 14 - - 0.0
28/07:00pm 19.1 13.9 9.0 52 5.3 S 26 37 14 20 - - 0.0
28/06:30pm 19.7 15.1 9.6 52 5.4 S 24 37 13 20 - - 0.0
28/06:00pm 20.7 14.0 9.6 49 5.9 SSW 35 46 19 25 - - 0.0
28/05:33pm 21.8 14.4 10.0 47 6.4 SSW 39 57 21 31 - - 0.0
28/05:30pm 21.8 14.1 10.0 47 6.4 SSW 41 57 22 31 - - 0.0
28/05:12pm 23.1 15.4 10.2 44 7.1 SSW 41 59 22 32 - - 0.0
28/05:00pm 23.8 16.7 9.4 40 7.8 SW 37 52 20 28 - - 0.0
28/04:48pm 24.8 18.0 9.1 37 8.5 SW 35 54 19 29 - - 0.0
28/04:35pm 25.2 17.4 8.2 34 9.1 SW 39 52 21 28 - - 0.0
28/04:33pm 27.6 23.0 8.0 29 10.6 WSW 22 44 12 24 - - 0.0
28/04:30pm 32.8 26.5 1.8 14 15.5 NW 24 41 13 22 - - 0.0
28/04:00pm 31.9 26.1 2.1 15 14.9 WNW 22 41 12 22 - - 0.0
28/03:30pm 31.9 26.2 3.0 16 14.7 NW 22 37 12 20 - - 0.0
28/03:00pm 32.2 26.0 4.1 17 14.6 NNW 26 41 14 22 - - 0.0
28/02:30pm 32.1 26.8 4.8 18 14.3 N 22 35 12 19 - - 0.0
28/02:00pm 30.8 26.2 6.6 22 13.0 N 20 35 11 19 - - 0.0
28/01:30pm 29.8 24.1 5.1 21 12.9 N 24 44 13 24 - - 0.0
28/01:00pm 31.1 24.0 5.5 20 13.5 N 32 57 17 31 - - 0.0
28/12:30pm 30.3 22.5 4.9 20 13.2 N 35 56 19 30 - - 0.0
28/12:00pm 29.5 20.8 4.2 20 12.9 N 39 61 21 33 - - 0.0
28/11:30am 28.7 20.8 4.2 21 12.5 N 35 63 19 34 - - 0.0
28/11:00am 28.1 20.5 5.6 24 11.7 N 35 61 19 33 - - 0.0
28/10:30am 27.0 20.4 5.9 26 11.0 N 30 50 16 27 - - 0.0
28/10:00am 27.0 20.2 5.3 25 11.1 N 30 65 16 35 - - 0.0
28/09:30am 25.7 19.8 7.3 31 9.7 N 28 56 15 30 - - 0.0
28/09:00am 26.0 19.2 7.1 30 10.0 N 32 56 17 30 - - 0.0
28/08:47am 25.2 19.3 7.3 32 9.4 N 28 48 15 26 - - 0.0
28/08:30am 25.2 20.5 7.8 33 9.2 N 22 39 12 21 - - 0.0
28/08:00am 25.2 19.2 5.4 28 10.1 N 26 39 14 21 - - 0.0
28/07:30am 23.2 19.1 6.0 33 8.7 N 17 26 9 14 - - 0.0
28/07:00am 21.6 18.3 6.3 37 7.7 N 13 24 7 13 - - 0.0
28/06:30am 21.1 17.4 6.2 38 7.5 N 15 24 8 13 - - 0.0
28/06:00am 18.1 16.0 8.1 52 5.1 N 9 17 5 9 - - 0.0
28/05:30am 20.5 17.7 6.8 41 6.9 N 11 20 6 11 - - 0.0
28/05:00am 19.8 16.8 7.9 46 6.1 N 13 22 7 12 - - 0.0
28/04:30am 19.4 16.5 8.1 48 5.8 N 13 20 7 11 - - 0.0
28/04:00am 23.2 18.3 4.2 29 9.3 N 19 32 10 17 - - 0.0
28/03:30am 23.6 17.7 4.0 28 9.6 N 24 33 13 18 - - 0.0
28/03:00am 22.8 17.8 4.8 31 8.9 NNE 20 32 11 17 - - 0.0
28/02:30am 23.1 17.7 4.6 30 9.1 N 22 35 12 19 - - 0.0
28/02:00am 22.9 17.6 4.9 31 8.9 N 22 33 12 18 - - 0.0
28/01:30am 22.8 18.5 5.3 32 8.7 N 17 33 9 18 - - 0.0
28/01:00am 22.5 18.1 6.7 36 8.1 N 19 26 10 14 - - 0.0
28/12:30am 23.9 19.7 5.8 31 9.2 NNE 17 28 9 15 - - 0.0
28/12:00am 23.5 19.2 5.4 31 9.1 NNE 17 26 9 14 - - 0.0
 
Date/Time
CST
Temp
°C
App
Temp
°C
Dew
Point
Rel
Hum
%
Delta-T
°C
Wind Press
QNH
hPa
Press
MSL
hPa
Rain
since 9 am
mm
Dir
 
Spd
km/h
Gust
km/h
Spd
kts
Gust
kts
27/11:30pm 24.7 19.9 5.5 29 9.8 NNE 20 32 11 17 - - 0.0
27/11:00pm 24.8 19.9 5.1 28 9.9 NNE 20 33 11 18 - - 0.0
27/10:30pm 23.6 19.8 6.0 32 9.0 NNE 15 24 8 13 - - 0.0
27/10:00pm 23.0 19.4 5.0 31 9.0 NNE 13 22 7 12 - - 0.0
27/09:30pm 22.0 18.3 4.6 32 8.5 NNE 13 17 7 9 - - 0.0

Other Formats:

Comma delimited format used in spreadsheet applications
http://www.bom.gov.au/fwo/IDS60801/IDS60801.99001.axf

JavaScript Object Notation format (JSON) in row-major order
http://www.bom.gov.au/fwo/IDS60801/IDS60801.99001.json